KLM903 EHAM-EGLL
Flight info
| Callsign | KLM903 |
|---|---|
| Flight time | N/A |
| Altitude | 24000 |
| Route | IDRID L980 LOGAN |
| Aircraft | B737/M-SDE2E3FGHIRWXY/LB1 |
Departure
| Time | 2026-04-28 19:18 |
|---|---|
| Airport | Amsterdam Airport Schiphol (EHAM) |
Arrival
| Time | N/A |
|---|---|
| Airport | London Heathrow Airport (EGLL) |
| Time | Latitude | Longitude | Altitude | Speed | Heading |
|---|---|---|---|---|---|
| 2026-04-28 18:50 | 52.31007 | 4.75408 | -2 ft | 0 kts | 148° |
| 2026-04-28 19:05 | 52.31027 | 4.75389 | -2 ft | 4 kts | 152° |
| 2026-04-28 19:05 | 52.31042 | 4.75371 | -2 ft | 3 kts | 79° |
| 2026-04-28 19:05 | 52.31037 | 4.75340 | -2 ft | 1 kts | 70° |
| 2026-04-28 19:07 | 52.31044 | 4.75355 | -2 ft | 4 kts | 54° |
| 2026-04-28 19:07 | 52.31071 | 4.75416 | -2 ft | 9 kts | 54° |
| 2026-04-28 19:07 | 52.31136 | 4.75453 | -2 ft | 12 kts | 11° |
| 2026-04-28 19:08 | 52.31235 | 4.75455 | -2 ft | 16 kts | 356° |
| 2026-04-28 19:08 | 52.31358 | 4.75445 | -2 ft | 19 kts | 357° |
| 2026-04-28 19:08 | 52.31485 | 4.75420 | -2 ft | 18 kts | 321° |
| 2026-04-28 19:08 | 52.31518 | 4.75305 | -2 ft | 10 kts | 258° |
| 2026-04-28 19:09 | 52.31503 | 4.75188 | -2 ft | 11 kts | 266° |
| 2026-04-28 19:09 | 52.31499 | 4.75052 | -2 ft | 13 kts | 266° |
| 2026-04-28 19:09 | 52.31491 | 4.74896 | -2 ft | 15 kts | 265° |
| 2026-04-28 19:09 | 52.31482 | 4.74722 | -2 ft | 16 kts | 265° |
| 2026-04-28 19:10 | 52.31473 | 4.74532 | -2 ft | 17 kts | 268° |
| 2026-04-28 19:10 | 52.31473 | 4.74329 | -2 ft | 18 kts | 269° |
| 2026-04-28 19:10 | 52.31527 | 4.74165 | -2 ft | 18 kts | 346° |
| 2026-04-28 19:10 | 52.31651 | 4.74161 | -2 ft | 18 kts | 4° |
| 2026-04-28 19:11 | 52.31771 | 4.74174 | -2 ft | 17 kts | 4° |
| 2026-04-28 19:11 | 52.31887 | 4.74186 | -2 ft | 16 kts | 4° |
| 2026-04-28 19:11 | 52.31995 | 4.74176 | -2 ft | 16 kts | 329° |
| 2026-04-28 19:11 | 52.32037 | 4.73995 | -3 ft | 24 kts | 274° |
| 2026-04-28 19:12 | 52.32049 | 4.73713 | -2 ft | 24 kts | 272° |
| 2026-04-28 19:12 | 52.32061 | 4.73450 | -2 ft | 23 kts | 284° |
| 2026-04-28 19:12 | 52.32159 | 4.73256 | -2 ft | 22 kts | 318° |
| 2026-04-28 19:12 | 52.32288 | 4.73073 | -2 ft | 32 kts | 319° |
| 2026-04-28 19:13 | 52.32495 | 4.72786 | -2 ft | 41 kts | 319° |
| 2026-04-28 19:13 | 52.32696 | 4.72488 | -2 ft | 37 kts | 312° |
| 2026-04-28 19:13 | 52.32861 | 4.72183 | -2 ft | 34 kts | 311° |
| 2026-04-28 19:13 | 52.33011 | 4.71906 | -2 ft | 31 kts | 311° |
| 2026-04-28 19:14 | 52.33136 | 4.71662 | -2 ft | 23 kts | 296° |
| 2026-04-28 19:14 | 52.33137 | 4.71433 | -2 ft | 18 kts | 294° |
| 2026-04-28 19:14 | 52.33214 | 4.71272 | -2 ft | 18 kts | 311° |
| 2026-04-28 19:14 | 52.33294 | 4.71122 | -2 ft | 17 kts | 311° |
| 2026-04-28 19:15 | 52.33375 | 4.70986 | -3 ft | 16 kts | 324° |
| 2026-04-28 19:15 | 52.33448 | 4.70947 | -3 ft | 0 kts | 1° |
| 2026-04-28 19:16 | 52.33449 | 4.70947 | -3 ft | 0 kts | 1° |
| 2026-04-28 19:17 | 52.33531 | 4.70953 | -2 ft | 36 kts | 3° |
| 2026-04-28 19:17 | 52.33982 | 4.70995 | -2 ft | 92 kts | 3° |
| 2026-04-28 19:17 | 52.34777 | 4.71068 | 1 ft | 134 kts | 6° |
| 2026-04-28 19:17 | 52.35766 | 4.71127 | 201 ft | 144 kts | 5° |
| 2026-04-28 19:18 | 52.36776 | 4.71156 | 457 ft | 153 kts | 3° |
| 2026-04-28 19:18 | 52.37866 | 4.71164 | 694 ft | 156 kts | 7° |
| 2026-04-28 19:18 | 52.38891 | 4.71274 | 1179 ft | 144 kts | 14° |
| 2026-04-28 19:18 | 52.39895 | 4.71396 | 1519 ft | 145 kts | 14° |
| 2026-04-28 19:19 | 52.40940 | 4.71520 | 1802 ft | 160 kts | 14° |
| 2026-04-28 19:19 | 52.42107 | 4.71666 | 2020 ft | 180 kts | 16° |
| 2026-04-28 19:19 | 52.43462 | 4.71559 | 2158 ft | 214 kts | 345° |
| 2026-04-28 19:19 | 52.44674 | 4.69946 | 2316 ft | 241 kts | 316° |
| 2026-04-28 19:20 | 52.45835 | 4.67832 | 2446 ft | 259 kts | 315° |
| 2026-04-28 19:20 | 52.46703 | 4.65131 | 2568 ft | 282 kts | 280° |
| 2026-04-28 19:20 | 52.46770 | 4.61865 | 2823 ft | 289 kts | 268° |
| 2026-04-28 19:20 | 52.46741 | 4.58617 | 3730 ft | 282 kts | 269° |
| 2026-04-28 19:21 | 52.46575 | 4.55422 | 4573 ft | 283 kts | 252° |
| 2026-04-28 19:21 | 52.45630 | 4.52610 | 5294 ft | 286 kts | 226° |
| 2026-04-28 19:21 | 52.44071 | 4.50643 | 6096 ft | 283 kts | 209° |
| 2026-04-28 19:21 | 52.42414 | 4.48751 | 6907 ft | 289 kts | 223° |
| 2026-04-28 19:22 | 52.41294 | 4.46079 | 7726 ft | 291 kts | 240° |
| 2026-04-28 19:22 | 52.40654 | 4.44130 | 8245 ft | 295 kts | 241° |
| 2026-04-28 19:22 | 52.39376 | 4.40130 | 9386 ft | 299 kts | 241° |
| 2026-04-28 19:22 | 52.38404 | 4.37087 | 10195 ft | 304 kts | 241° |
| 2026-04-28 19:23 | 52.37402 | 4.33973 | 10778 ft | 317 kts | 241° |
| 2026-04-28 19:23 | 52.36330 | 4.30661 | 10980 ft | 343 kts | 241° |
| 2026-04-28 19:23 | 52.35176 | 4.27112 | 11326 ft | 360 kts | 241° |
| 2026-04-28 19:23 | 52.33984 | 4.23457 | 11974 ft | 368 kts | 241° |
| 2026-04-28 19:24 | 52.32768 | 4.19747 | 12728 ft | 372 kts | 241° |
| 2026-04-28 19:24 | 52.31536 | 4.16008 | 13535 ft | 375 kts | 240° |
| 2026-04-28 19:24 | 52.30115 | 4.12416 | 14353 ft | 377 kts | 233° |
| 2026-04-28 19:24 | 52.28506 | 4.09010 | 15042 ft | 383 kts | 230° |
| 2026-04-28 19:25 | 52.26812 | 4.05604 | 15749 ft | 388 kts | 230° |
| 2026-04-28 19:25 | 52.25095 | 4.02167 | 16521 ft | 391 kts | 230° |
| 2026-04-28 19:25 | 52.23379 | 3.98699 | 17300 ft | 394 kts | 231° |
| 2026-04-28 19:25 | 52.21659 | 3.95180 | 17990 ft | 400 kts | 231° |
| 2026-04-28 19:26 | 52.19920 | 3.91592 | 18651 ft | 406 kts | 231° |
| 2026-04-28 19:26 | 52.18163 | 3.87951 | 19247 ft | 410 kts | 231° |
| 2026-04-28 19:26 | 52.16396 | 3.84284 | 19879 ft | 414 kts | 231° |
| 2026-04-28 19:26 | 52.14609 | 3.80572 | 20489 ft | 418 kts | 231° |
| 2026-04-28 19:27 | 52.12804 | 3.76828 | 21113 ft | 422 kts | 231° |
| 2026-04-28 19:27 | 52.10989 | 3.73068 | 21707 ft | 426 kts | 231° |
| 2026-04-28 19:27 | 52.09147 | 3.69260 | 22277 ft | 430 kts | 231° |
| 2026-04-28 19:27 | 52.07286 | 3.65418 | 22838 ft | 435 kts | 231° |
| 2026-04-28 19:28 | 52.05405 | 3.61542 | 23399 ft | 439 kts | 231° |
| 2026-04-28 19:28 | 52.03503 | 3.57623 | 23904 ft | 444 kts | 231° |
| 2026-04-28 19:28 | 52.01582 | 3.53675 | 24236 ft | 448 kts | 230° |
| 2026-04-28 19:28 | 51.99642 | 3.49698 | 24238 ft | 449 kts | 230° |
| 2026-04-28 19:29 | 51.97749 | 3.45673 | 24266 ft | 452 kts | 232° |
| 2026-04-28 19:29 | 51.96505 | 3.42923 | 24273 ft | 462 kts | 233° |
| 2026-04-28 19:29 | 51.93933 | 3.37149 | 24271 ft | 480 kts | 233° |
| 2026-04-28 19:29 | 51.91950 | 3.32711 | 24269 ft | 492 kts | 232° |
| 2026-04-28 19:30 | 51.89002 | 3.26195 | 24258 ft | 505 kts | 232° |
| 2026-04-28 19:30 | 51.86935 | 3.21221 | 24237 ft | 506 kts | 240° |
| 2026-04-28 19:30 | 51.85481 | 3.16103 | 24230 ft | 497 kts | 249° |
| 2026-04-28 19:30 | 51.84505 | 3.10854 | 24242 ft | 493 kts | 257° |
| 2026-04-28 19:31 | 51.83875 | 3.03317 | 24262 ft | 494 kts | 265° |